Time;durP1;ratioP1;P1;durP2;ratioP2;P2;SDS_P1;SDS_P2;PMS_P1;PMS_P2;Temp;Humidity;BMP_temperature;BMP_pressure;BME280_temperature;BME280_humidity;BME280_pressure;Samples;Min_cycle;Max_cycle;Signal;HPM_P1;HPM_P2
2022/05/14 00:01:21;;;;;;;15.57;6.70;;;;;;;;;;5087772;27;20123;-67
2022/05/14 00:03:47;;;;;;;23.67;8.30;;;;;;;;;;5088687;28;20048;-68
2022/05/14 00:06:18;;;;;;;25.65;7.13;;;;;;;;;;5091558;27;20036;-67
2022/05/14 00:08:44;;;;;;;13.70;7.10;;;;;;;;;;5086214;28;20043;-67
2022/05/14 00:13:56;;;;;;;20.70;8.60;;;;;;;;;;5085772;28;20100;-68
2022/05/14 00:16:23;;;;;;;16.52;7.88;;;;;;;;;;5084747;28;20382;-67
2022/05/14 00:18:49;;;;;;;21.40;7.03;;;;;;;;;;5097341;28;20078;-67
2022/05/14 00:21:15;;;;;;;22.98;7.63;;;;;;;;;;5088580;28;20032;-67
2022/05/14 00:23:41;;;;;;;21.80;7.80;;;;;;;;;;5085933;28;20036;-68
2022/05/14 00:26:08;;;;;;;23.02;8.80;;;;;;;;;;5095188;28;20277;-68
2022/05/14 00:28:34;;;;;;;15.50;7.90;;;;;;;;;;5093300;27;20074;-67
2022/05/14 00:31:00;;;;;;;16.60;9.77;;;;;;;;;;5084632;28;20070;-67
2022/05/14 00:33:26;;;;;;;19.13;7.65;;;;;;;;;;5086589;27;20582;-67
2022/05/14 00:35:52;;;;;;;17.88;7.35;;;;;;;;;;5083936;28;20095;-68
2022/05/14 00:38:19;;;;;;;20.00;8.07;;;;;;;;;;5085393;28;20104;-67
2022/05/14 00:40:48;;;;;;;22.73;7.38;;;;;;;;;;5083851;27;20085;-67
2022/05/14 00:43:14;;;;;;;23.35;8.73;;;;;;;;;;5084600;28;20569;-67
2022/05/14 00:45:42;;;;;;;22.02;8.48;;;;;;;;;;5085330;28;20087;-67
2022/05/14 00:48:11;;;;;;;21.23;9.48;;;;;;;;;;5095190;28;20190;-68
2022/05/14 00:50:44;;;;;;;32.33;9.05;;;;;;;;;;5075297;28;20052;-67
2022/05/14 00:53:19;;;;;;;20.35;7.45;;;;;;;;;;5085936;28;20567;-67
2022/05/14 00:55:47;;;;;;;25.80;10.35;;;;;;;;;;5085214;28;20413;-67
2022/05/14 00:58:33;;;;;;;17.50;8.63;;;;;;;;;;5092856;28;20055;-67
2022/05/14 01:00:59;;;;;;;26.92;9.07;;;;;;;;;;5085547;28;20177;-67
2022/05/14 01:03:25;;;;;;;20.02;8.65;;;;;;;;;;5084440;28;20044;-67
2022/05/14 01:05:52;;;;;;;31.50;9.10;;;;;;;;;;5088810;28;20047;-67
2022/05/14 01:08:18;;;;;;;21.27;8.77;;;;;;;;;;5083615;28;20365;-67
2022/05/14 01:10:45;;;;;;;22.65;8.30;;;;;;;;;;5082945;28;20040;-67
2022/05/14 01:13:12;;;;;;;26.45;9.43;;;;;;;;;;5086394;27;20401;-67
2022/05/14 01:15:38;;;;;;;35.05;9.65;;;;;;;;;;5091434;28;20091;-67
2022/05/14 01:18:04;;;;;;;25.40;9.40;;;;;;;;;;5089897;28;20607;-67
2022/05/14 01:20:35;;;;;;;25.77;9.48;;;;;;;;;;5087432;27;20048;-67
2022/05/14 01:23:04;;;;;;;30.42;9.35;;;;;;;;;;5072704;28;20055;-67
2022/05/14 01:28:30;;;;;;;27.23;9.43;;;;;;;;;;5095749;27;20035;-67
2022/05/14 01:30:57;;;;;;;17.73;8.48;;;;;;;;;;5096340;28;20152;-67
2022/05/14 01:33:23;;;;;;;21.80;9.10;;;;;;;;;;5090683;27;20122;-68
2022/05/14 01:35:50;;;;;;;18.90;8.02;;;;;;;;;;5093812;27;20069;-68
2022/05/14 01:38:18;;;;;;;28.75;9.75;;;;;;;;;;5087374;27;20075;-67
2022/05/14 01:40:44;;;;;;;33.15;10.27;;;;;;;;;;5088798;27;20458;-67
2022/05/14 01:43:10;;;;;;;28.42;10.13;;;;;;;;;;5087883;27;20587;-67
2022/05/14 01:45:36;;;;;;;24.17;9.82;;;;;;;;;;5093911;28;20123;-67
2022/05/14 01:48:03;;;;;;;26.05;9.55;;;;;;;;;;5087851;27;20291;-67
2022/05/14 01:50:29;;;;;;;27.67;10.45;;;;;;;;;;5086290;28;20056;-68
2022/05/14 01:52:56;;;;;;;22.02;9.68;;;;;;;;;;5087708;27;20104;-67
2022/05/14 01:55:22;;;;;;;28.17;9.10;;;;;;;;;;5069352;28;20040;-67
2022/05/14 01:57:48;;;;;;;20.00;10.43;;;;;;;;;;5093464;28;20078;-67
2022/05/14 02:00:16;;;;;;;18.58;9.93;;;;;;;;;;5088929;27;20024;-67
2022/05/14 02:02:42;;;;;;;24.80;9.73;;;;;;;;;;5101263;28;20138;-67
2022/05/14 02:05:08;;;;;;;25.88;9.57;;;;;;;;;;5086865;27;20144;-67
2022/05/14 02:07:34;;;;;;;24.48;8.57;;;;;;;;;;5068291;28;20541;-67
2022/05/14 02:10:01;;;;;;;28.77;10.32;;;;;;;;;;5090971;27;20071;-67
2022/05/14 02:12:27;;;;;;;23.20;9.23;;;;;;;;;;5089932;27;20054;-67
2022/05/14 02:14:53;;;;;;;29.48;10.13;;;;;;;;;;5086974;27;20036;-67
2022/05/14 02:17:19;;;;;;;22.85;10.27;;;;;;;;;;5085586;28;20501;-67
2022/05/14 02:19:47;;;;;;;25.13;9.88;;;;;;;;;;5088121;27;20048;-67
2022/05/14 02:22:13;;;;;;;21.88;9.45;;;;;;;;;;5086194;28;20048;-67
2022/05/14 02:24:40;;;;;;;26.27;9.95;;;;;;;;;;5084873;28;20178;-67
2022/05/14 02:27:07;;;;;;;20.95;9.75;;;;;;;;;;5086260;27;20269;-67
2022/05/14 02:29:50;;;;;;;28.42;9.95;;;;;;;;;;5087356;27;20043;-67
2022/05/14 02:32:17;;;;;;;23.10;10.77;;;;;;;;;;5087669;27;20048;-67
2022/05/14 02:34:43;;;;;;;19.95;9.43;;;;;;;;;;5087768;27;20048;-67
2022/05/14 02:37:09;;;;;;;24.48;10.13;;;;;;;;;;5083952;27;20122;-68
2022/05/14 02:39:35;;;;;;;25.45;9.05;;;;;;;;;;5087253;27;20078;-67
2022/05/14 02:42:01;;;;;;;28.27;9.70;;;;;;;;;;5087740;28;20044;-67
2022/05/14 02:44:28;;;;;;;28.58;9.68;;;;;;;;;;5087580;28;20062;-68
2022/05/14 02:46:54;;;;;;;22.60;9.07;;;;;;;;;;5087059;27;20040;-68
2022/05/14 02:49:20;;;;;;;23.75;9.85;;;;;;;;;;5087045;27;20105;-68
2022/05/14 02:51:48;;;;;;;26.50;11.30;;;;;;;;;;5084361;27;20044;-68
2022/05/14 02:54:14;;;;;;;31.20;10.88;;;;;;;;;;5085660;28;20039;-68
2022/05/14 02:56:40;;;;;;;20.95;9.05;;;;;;;;;;5084917;28;20067;-68
2022/05/14 02:59:09;;;;;;;19.50;9.48;;;;;;;;;;5092316;27;20086;-68
2022/05/14 03:01:36;;;;;;;23.05;10.25;;;;;;;;;;5086558;28;20040;-68
2022/05/14 03:04:04;;;;;;;25.95;10.88;;;;;;;;;;5086909;27;20958;-68
2022/05/14 03:06:30;;;;;;;31.63;11.30;;;;;;;;;;5084086;27;20297;-68
2022/05/14 03:08:57;;;;;;;21.52;9.68;;;;;;;;;;5084473;28;20078;-68
2022/05/14 03:11:23;;;;;;;28.33;11.70;;;;;;;;;;5086879;27;20096;-68
2022/05/14 03:13:49;;;;;;;32.13;10.40;;;;;;;;;;5098008;27;20052;-68
2022/05/14 03:16:15;;;;;;;25.00;9.80;;;;;;;;;;5067831;28;20405;-68
2022/05/14 03:18:41;;;;;;;21.52;10.20;;;;;;;;;;5087347;27;20044;-68
2022/05/14 03:21:08;;;;;;;26.48;9.35;;;;;;;;;;5083827;28;20048;-68
2022/05/14 03:23:34;;;;;;;22.88;10.63;;;;;;;;;;5094651;28;20534;-68
2022/05/14 03:26:00;;;;;;;25.00;11.00;;;;;;;;;;5084968;28;20150;-68
2022/05/14 03:28:26;;;;;;;32.30;12.32;;;;;;;;;;5086372;27;20315;-68
2022/05/14 03:30:52;;;;;;;21.90;10.32;;;;;;;;;;5101045;27;20106;-68
2022/05/14 03:33:18;;;;;;;24.70;10.80;;;;;;;;;;5084894;28;20394;-68
2022/05/14 03:35:45;;;;;;;29.80;9.85;;;;;;;;;;5082856;28;20443;-68
2022/05/14 03:38:11;;;;;;;24.67;9.63;;;;;;;;;;5086674;28;20079;-67
2022/05/14 03:40:37;;;;;;;27.50;11.27;;;;;;;;;;5100494;27;20044;-68
2022/05/14 03:43:03;;;;;;;25.58;11.05;;;;;;;;;;5085430;28;20035;-68
2022/05/14 03:45:29;;;;;;;25.85;10.27;;;;;;;;;;5088679;27;20089;-68
2022/05/14 03:47:55;;;;;;;20.60;9.23;;;;;;;;;;5089691;28;20151;-68
2022/05/14 03:50:22;;;;;;;20.70;9.40;;;;;;;;;;5085719;27;20461;-68
2022/05/14 03:52:48;;;;;;;22.02;9.25;;;;;;;;;;5088669;27;20043;-68
2022/05/14 03:55:14;;;;;;;19.92;9.50;;;;;;;;;;5084302;28;20112;-67
2022/05/14 03:57:40;;;;;;;15.95;9.60;;;;;;;;;;5086178;27;20116;-68
2022/05/14 04:00:07;;;;;;;27.02;9.30;;;;;;;;;;5087313;27;20125;-68
2022/05/14 04:02:34;;;;;;;28.75;11.48;;;;;;;;;;5084681;28;20027;-68
2022/05/14 04:05:00;;;;;;;31.67;11.18;;;;;;;;;;5085849;27;20047;-68
2022/05/14 04:07:26;;;;;;;26.50;10.15;;;;;;;;;;5082348;27;20052;-68
2022/05/14 04:09:52;;;;;;;24.52;11.07;;;;;;;;;;5099690;28;20643;-68
2022/05/14 04:12:19;;;;;;;24.67;9.68;;;;;;;;;;5085526;27;20085;-68
2022/05/14 04:14:46;;;;;;;26.27;10.57;;;;;;;;;;5094586;28;20044;-68
2022/05/14 04:17:13;;;;;;;39.78;13.43;;;;;;;;;;5085481;28;20312;-68
2022/05/14 04:19:39;;;;;;;19.65;8.70;;;;;;;;;;5086143;27;20056;-67
2022/05/14 04:22:05;;;;;;;28.35;11.35;;;;;;;;;;5064617;28;20048;-68
2022/05/14 04:24:32;;;;;;;28.02;11.23;;;;;;;;;;5094820;27;20512;-68
2022/05/14 04:26:58;;;;;;;20.63;9.18;;;;;;;;;;5086462;28;20040;-68
2022/05/14 04:29:25;;;;;;;28.15;10.57;;;;;;;;;;5085418;27;20082;-68
2022/05/14 04:31:51;;;;;;;22.23;10.68;;;;;;;;;;5085292;27;20042;-68
2022/05/14 04:34:18;;;;;;;23.30;8.95;;;;;;;;;;5091436;28;20044;-68
2022/05/14 04:36:44;;;;;;;20.92;10.07;;;;;;;;;;5097931;27;20052;-68
2022/05/14 04:39:10;;;;;;;26.88;10.65;;;;;;;;;;5085778;28;20048;-68
2022/05/14 04:41:36;;;;;;;25.70;11.88;;;;;;;;;;5081996;28;20043;-68
2022/05/14 04:44:03;;;;;;;26.65;11.18;;;;;;;;;;5085501;28;20502;-68
2022/05/14 04:46:29;;;;;;;23.75;9.73;;;;;;;;;;5082874;28;20044;-68
2022/05/14 04:48:56;;;;;;;29.73;11.63;;;;;;;;;;5079940;28;20112;-68
2022/05/14 04:51:22;;;;;;;21.98;10.15;;;;;;;;;;5089077;28;20132;-67
2022/05/14 04:53:48;;;;;;;27.92;9.52;;;;;;;;;;5089612;28;20545;-67
2022/05/14 04:56:14;;;;;;;24.45;8.80;;;;;;;;;;5090178;28;20055;-67
2022/05/14 04:58:40;;;;;;;22.48;10.15;;;;;;;;;;5083246;27;20088;-68
2022/05/14 05:01:06;;;;;;;24.23;9.50;;;;;;;;;;5082928;28;20043;-68
2022/05/14 05:03:33;;;;;;;19.05;8.65;;;;;;;;;;5083669;28;20067;-68
2022/05/14 05:06:00;;;;;;;25.38;9.88;;;;;;;;;;5083883;28;20044;-68
2022/05/14 05:08:27;;;;;;;26.17;9.88;;;;;;;;;;5075276;28;20457;-67
2022/05/14 05:10:53;;;;;;;20.65;10.80;;;;;;;;;;5096564;28;20097;-68
2022/05/14 05:13:23;;;;;;;21.38;9.48;;;;;;;;;;5087812;28;20920;-68
2022/05/14 05:15:51;;;;;;;20.92;10.18;;;;;;;;;;5092201;28;20043;-68
2022/05/14 05:18:17;;;;;;;22.30;10.35;;;;;;;;;;5084938;28;20044;-68
2022/05/14 05:20:45;;;;;;;16.33;9.15;;;;;;;;;;5088145;28;20616;-68
2022/05/14 05:23:12;;;;;;;22.10;9.45;;;;;;;;;;5093365;28;20088;-68
2022/05/14 05:25:38;;;;;;;19.33;9.00;;;;;;;;;;5094726;28;20040;-68
2022/05/14 05:28:04;;;;;;;18.00;9.80;;;;;;;;;;5083963;28;20043;-68
2022/05/14 05:30:31;;;;;;;22.25;8.85;;;;;;;;;;5087116;28;20173;-68
2022/05/14 05:32:57;;;;;;;28.58;9.95;;;;;;;;;;5086129;28;20609;-67
2022/05/14 05:35:23;;;;;;;18.38;9.20;;;;;;;;;;5083310;28;20040;-68
2022/05/14 05:37:50;;;;;;;29.33;10.82;;;;;;;;;;5083846;28;20043;-68
2022/05/14 05:40:17;;;;;;;17.88;8.18;;;;;;;;;;5082890;28;20040;-68
2022/05/14 05:42:44;;;;;;;22.27;8.48;;;;;;;;;;5084590;28;20090;-67
2022/05/14 05:45:11;;;;;;;21.73;11.35;;;;;;;;;;5094179;28;20123;-68
2022/05/14 05:47:37;;;;;;;28.02;10.40;;;;;;;;;;5086276;28;20058;-68
2022/05/14 05:50:03;;;;;;;18.30;9.73;;;;;;;;;;5087601;28;20059;-67
2022/05/14 05:52:32;;;;;;;23.15;8.93;;;;;;;;;;5082823;28;20081;-68
2022/05/14 05:58:03;;;;;;;15.93;7.55;;;;;;;;;;5035858;28;20053;-68
2022/05/14 06:00:29;;;;;;;18.38;7.78;;;;;;;;;;5039928;28;20253;-68
2022/05/14 06:02:55;;;;;;;19.08;8.18;;;;;;;;;;5069454;27;20192;-68
2022/05/14 06:05:22;;;;;;;19.50;9.30;;;;;;;;;;5085538;27;20532;-68
2022/05/14 06:07:48;;;;;;;23.20;8.73;;;;;;;;;;5086368;27;20083;-68
2022/05/14 06:10:16;;;;;;;18.65;8.85;;;;;;;;;;5088821;27;20075;-68
2022/05/14 06:12:42;;;;;;;20.13;7.53;;;;;;;;;;5096598;27;20405;-68
2022/05/14 06:15:09;;;;;;;22.05;7.38;;;;;;;;;;5092839;28;20036;-68
2022/05/14 06:17:36;;;;;;;19.55;7.45;;;;;;;;;;5090510;27;20067;-67
2022/05/14 06:20:03;;;;;;;14.88;6.90;;;;;;;;;;5102392;28;20040;-68
2022/05/14 06:22:30;;;;;;;18.30;6.97;;;;;;;;;;5100323;27;20165;-67
2022/05/14 06:24:57;;;;;;;17.67;7.32;;;;;;;;;;5094414;27;20078;-67
2022/05/14 06:27:23;;;;;;;17.63;6.78;;;;;;;;;;5086607;28;20032;-68
2022/05/14 06:29:49;;;;;;;15.68;7.25;;;;;;;;;;5098887;27;20266;-68
2022/05/14 06:32:15;;;;;;;22.25;7.25;;;;;;;;;;5094700;27;20046;-67
2022/05/14 06:34:41;;;;;;;28.92;7.80;;;;;;;;;;5095026;28;20523;-68
2022/05/14 06:37:07;;;;;;;19.13;7.72;;;;;;;;;;5091501;27;20510;-68
2022/05/14 06:39:34;;;;;;;21.92;7.32;;;;;;;;;;5086909;28;20721;-67
2022/05/14 06:42:00;;;;;;;17.77;7.57;;;;;;;;;;5098965;28;20093;-68
2022/05/14 06:44:26;;;;;;;15.90;6.10;;;;;;;;;;5086778;28;20097;-67
2022/05/14 06:46:53;;;;;;;20.10;7.43;;;;;;;;;;5090912;27;20490;-68
2022/05/14 06:49:19;;;;;;;23.30;6.45;;;;;;;;;;5097656;27;20128;-68
2022/05/14 06:51:45;;;;;;;15.32;6.30;;;;;;;;;;5084442;27;20080;-68
2022/05/14 06:54:12;;;;;;;16.05;6.07;;;;;;;;;;5086214;28;20101;-68
2022/05/14 06:56:41;;;;;;;20.58;6.60;;;;;;;;;;5088376;28;20158;-67
2022/05/14 06:59:08;;;;;;;20.38;6.63;;;;;;;;;;5093132;28;20918;-68
2022/05/14 07:01:36;;;;;;;20.20;7.25;;;;;;;;;;5087098;27;20031;-68
2022/05/14 07:06:49;;;;;;;17.30;6.75;;;;;;;;;;5095528;27;20048;-68
2022/05/14 07:09:15;;;;;;;23.95;8.18;;;;;;;;;;5095156;27;20093;-68
2022/05/14 07:11:42;;;;;;;21.27;6.47;;;;;;;;;;5087375;27;20114;-68
2022/05/14 07:14:10;;;;;;;15.10;6.10;;;;;;;;;;5092591;28;20044;-68
2022/05/14 07:16:36;;;;;;;15.27;6.07;;;;;;;;;;5089205;27;20052;-68
2022/05/14 07:19:05;;;;;;;17.85;6.50;;;;;;;;;;5086548;28;20044;-68
2022/05/14 07:21:32;;;;;;;15.93;5.80;;;;;;;;;;5084639;27;20040;-68
2022/05/14 07:23:58;;;;;;;15.77;5.45;;;;;;;;;;5092857;28;20044;-68
2022/05/14 07:26:27;;;;;;;16.95;5.57;;;;;;;;;;5085837;27;20040;-68
2022/05/14 07:28:53;;;;;;;17.88;6.07;;;;;;;;;;5086158;27;20052;-68
2022/05/14 07:31:19;;;;;;;18.00;5.97;;;;;;;;;;5087044;28;20044;-67
2022/05/14 07:33:45;;;;;;;26.65;6.85;;;;;;;;;;5088390;27;20131;-68
2022/05/14 07:36:14;;;;;;;11.40;5.30;;;;;;;;;;5085324;27;20036;-68
2022/05/14 07:38:40;;;;;;;15.40;6.60;;;;;;;;;;5086527;27;20039;-68
2022/05/14 07:41:07;;;;;;;16.77;6.43;;;;;;;;;;5086086;28;20378;-68
2022/05/14 07:43:35;;;;;;;16.73;5.78;;;;;;;;;;5092708;28;20048;-68
2022/05/14 07:46:03;;;;;;;15.05;6.95;;;;;;;;;;5088453;27;20286;-67
2022/05/14 07:48:31;;;;;;;17.67;6.60;;;;;;;;;;5099799;27;20032;-67
2022/05/14 07:50:59;;;;;;;13.43;5.45;;;;;;;;;;5095127;28;20055;-68
2022/05/14 07:53:50;;;;;;;16.05;5.45;;;;;;;;;;5099266;28;20027;-70
2022/05/14 07:56:19;;;;;;;12.70;5.43;;;;;;;;;;5055160;28;20377;-68
2022/05/14 07:58:46;;;;;;;16.05;5.88;;;;;;;;;;5071564;28;20036;-68
2022/05/14 08:01:12;;;;;;;16.77;5.72;;;;;;;;;;5085957;28;20532;-68
2022/05/14 08:03:39;;;;;;;13.48;5.50;;;;;;;;;;5102453;28;20174;-67
2022/05/14 08:06:05;;;;;;;13.85;6.32;;;;;;;;;;5086621;28;20381;-68
2022/05/14 08:08:31;;;;;;;13.48;4.70;;;;;;;;;;5090849;28;20039;-68
2022/05/14 08:10:57;;;;;;;9.70;5.28;;;;;;;;;;5094124;28;20074;-68
2022/05/14 08:13:25;;;;;;;16.95;4.97;;;;;;;;;;5087110;27;20902;-68
2022/05/14 08:15:52;;;;;;;17.17;6.13;;;;;;;;;;5084620;27;20481;-68
2022/05/14 08:18:18;;;;;;;15.15;5.20;;;;;;;;;;5085110;27;20324;-67
2022/05/14 08:20:45;;;;;;;10.43;5.07;;;;;;;;;;5092513;28;20043;-68
2022/05/14 08:25:59;;;;;;;21.35;6.65;;;;;;;;;;5085055;27;20198;-68
2022/05/14 08:28:26;;;;;;;13.35;6.50;;;;;;;;;;5094773;28;20040;-68
2022/05/14 08:30:52;;;;;;;13.52;5.82;;;;;;;;;;5084677;28;20093;-67
2022/05/14 08:33:19;;;;;;;22.55;6.75;;;;;;;;;;5085949;28;20399;-68
2022/05/14 08:35:46;;;;;;;12.85;5.88;;;;;;;;;;5084250;28;20696;-68
2022/05/14 08:38:13;;;;;;;19.73;5.97;;;;;;;;;;5087166;27;20082;-68
2022/05/14 08:40:56;;;;;;;18.40;6.57;;;;;;;;;;5090915;28;20036;-68
2022/05/14 08:43:23;;;;;;;;;;;;;;;;;;5086873;27;20111;-69
2022/05/14 08:45:49;;;;;;;12.00;5.70;;;;;;;;;;5083527;28;19920;-68
2022/05/14 08:48:17;;;;;;;16.90;6.10;;;;;;;;;;5085501;28;20101;-68
2022/05/14 08:50:44;;;;;;;17.33;6.03;;;;;;;;;;5087471;28;20359;-68
2022/05/14 08:53:12;;;;;;;16.30;6.35;;;;;;;;;;5083204;28;20047;-68
2022/05/14 08:55:39;;;;;;;13.98;6.03;;;;;;;;;;5085123;28;20112;-68
2022/05/14 08:58:18;;;;;;;16.55;6.50;;;;;;;;;;5096287;28;20042;-68
2022/05/14 09:00:44;;;;;;;17.77;5.85;;;;;;;;;;5090737;28;20686;-68
2022/05/14 09:03:10;;;;;;;19.90;6.30;;;;;;;;;;5084848;28;20445;-68
2022/05/14 09:05:38;;;;;;;20.17;6.88;;;;;;;;;;5082357;28;20346;-68
2022/05/14 09:08:04;;;;;;;19.10;6.90;;;;;;;;;;5089525;28;20516;-68
2022/05/14 09:10:35;;;;;;;29.23;7.18;;;;;;;;;;5084887;28;20043;-68
2022/05/14 09:13:11;;;;;;;24.25;6.75;;;;;;;;;;5084235;28;20493;-68
2022/05/14 09:15:42;;;;;;;30.48;7.78;;;;;;;;;;5090157;28;20301;-68
2022/05/14 09:18:10;;;;;;;23.90;6.95;;;;;;;;;;5085404;28;20028;-68
2022/05/14 09:20:45;;;;;;;16.40;6.30;;;;;;;;;;5085235;28;20409;-68
2022/05/14 09:23:12;;;;;;;16.65;7.20;;;;;;;;;;5082922;28;20075;-68
2022/05/14 09:25:40;;;;;;;17.55;6.30;;;;;;;;;;5083258;28;20036;-68
2022/05/14 09:28:12;;;;;;;21.88;6.72;;;;;;;;;;5091853;28;20122;-68
2022/05/14 09:30:42;;;;;;;12.27;5.47;;;;;;;;;;5085377;28;20081;-69
2022/05/14 09:33:10;;;;;;;21.02;6.72;;;;;;;;;;5081740;28;20485;-68
2022/05/14 09:35:37;;;;;;;14.07;5.70;;;;;;;;;;5085964;28;20044;-68
2022/05/14 09:38:18;;;;;;;19.08;8.05;;;;;;;;;;5091544;27;20417;-68
2022/05/14 09:40:46;;;;;;;19.08;6.15;;;;;;;;;;5087259;27;20028;-68
2022/05/14 09:43:27;;;;;;;17.13;6.53;;;;;;;;;;5088188;27;20048;-68
2022/05/14 09:45:56;;;;;;;15.77;6.70;;;;;;;;;;5091527;28;20418;-68
2022/05/14 09:48:23;;;;;;;23.50;7.22;;;;;;;;;;5070345;28;20045;-68
2022/05/14 09:50:54;;;;;;;16.52;7.25;;;;;;;;;;5085931;28;20052;-68
2022/05/14 09:53:31;;;;;;;27.08;8.73;;;;;;;;;;5090923;28;20085;-68
2022/05/14 09:56:07;;;;;;;18.80;6.88;;;;;;;;;;5095806;27;20042;-68
2022/05/14 09:58:33;;;;;;;20.83;6.93;;;;;;;;;;5087874;27;20040;-69
2022/05/14 10:01:04;;;;;;;15.45;6.63;;;;;;;;;;5096221;28;20044;-68
2022/05/14 10:03:50;;;;;;;14.80;6.40;;;;;;;;;;5093205;28;20459;-68
2022/05/14 10:06:28;;;;;;;14.85;6.45;;;;;;;;;;5087374;28;20044;-68
2022/05/14 10:08:55;;;;;;;19.00;8.60;;;;;;;;;;5086494;27;20497;-69
2022/05/14 10:11:23;;;;;;;18.70;6.72;;;;;;;;;;5091179;27;20382;-69
2022/05/14 10:14:08;;;;;;;22.80;7.88;;;;;;;;;;5089455;27;20369;-68
2022/05/14 10:16:40;;;;;;;10.70;5.70;;;;;;;;;;5087348;27;20135;-68
2022/05/14 10:19:12;;;;;;;15.38;6.00;;;;;;;;;;5084522;28;20504;-68
2022/05/14 10:21:48;;;;;;;18.33;6.43;;;;;;;;;;5087523;28;20044;-68
2022/05/14 10:27:18;;;;;;;21.30;7.35;;;;;;;;;;5091893;28;20071;-68
2022/05/14 10:29:44;;;;;;;22.63;7.53;;;;;;;;;;5086882;27;20101;-68
2022/05/14 10:32:16;;;;;;;19.52;7.45;;;;;;;;;;5084375;28;20036;-68
2022/05/14 10:34:48;;;;;;;19.20;6.22;;;;;;;;;;5090136;28;20547;-69
2022/05/14 10:37:14;;;;;;;25.10;6.25;;;;;;;;;;5093034;27;20120;-68
2022/05/14 10:39:40;;;;;;;16.52;6.50;;;;;;;;;;5088214;28;20071;-68
2022/05/14 10:42:13;;;;;;;17.10;6.47;;;;;;;;;;5093206;27;20084;-68
2022/05/14 10:45:18;;;;;;;20.63;6.95;;;;;;;;;;5085550;27;20071;-68
2022/05/14 10:47:46;;;;;;;18.05;6.07;;;;;;;;;;5050185;28;20577;-68
2022/05/14 10:50:17;;;;;;;18.83;6.78;;;;;;;;;;5046945;28;20045;-68
2022/05/14 10:52:44;;;;;;;19.85;5.90;;;;;;;;;;5071988;28;20051;-68
2022/05/14 10:55:23;;;;;;;21.77;7.75;;;;;;;;;;5095333;27;20489;-68
2022/05/14 10:57:53;;;;;;;20.33;7.63;;;;;;;;;;5101277;28;20043;-68
2022/05/14 11:00:20;;;;;;;17.58;6.95;;;;;;;;;;5096552;27;20032;-67
2022/05/14 11:02:57;;;;;;;22.83;8.25;;;;;;;;;;5096230;27;20036;-68
2022/05/14 11:05:27;;;;;;;19.77;7.65;;;;;;;;;;5095370;28;20044;-68
2022/05/14 11:07:53;;;;;;;19.73;7.13;;;;;;;;;;5097675;28;20288;-68
2022/05/14 11:10:34;;;;;;;21.83;6.75;;;;;;;;;;5096383;27;20035;-68
2022/05/14 11:13:11;;;;;;;20.30;6.25;;;;;;;;;;5094487;28;20036;-68
2022/05/14 11:15:39;;;;;;;20.35;7.30;;;;;;;;;;5095960;27;20048;-68
2022/05/14 11:18:10;;;;;;;17.17;5.97;;;;;;;;;;5092487;27;20062;-68
2022/05/14 11:20:37;;;;;;;18.88;6.55;;;;;;;;;;5087177;28;20036;-68
2022/05/14 11:23:04;;;;;;;12.93;6.07;;;;;;;;;;5091386;27;20031;-68
2022/05/14 11:25:31;;;;;;;20.05;6.13;;;;;;;;;;5087774;28;20047;-68
2022/05/14 11:28:03;;;;;;;17.88;7.57;;;;;;;;;;5095823;28;20499;-68
2022/05/14 11:30:36;;;;;;;23.15;5.68;;;;;;;;;;5080979;28;20059;-68
2022/05/14 11:33:04;;;;;;;17.33;7.95;;;;;;;;;;5101612;27;20516;-68
2022/05/14 11:35:37;;;;;;;18.25;7.03;;;;;;;;;;5097931;27;20040;-68
2022/05/14 11:38:12;;;;;;;17.08;6.10;;;;;;;;;;5095171;27;20035;-67
2022/05/14 11:40:39;;;;;;;22.88;7.07;;;;;;;;;;5094548;28;20054;-68
2022/05/14 11:43:10;;;;;;;17.92;5.82;;;;;;;;;;5096612;27;20578;-68
2022/05/14 11:45:40;;;;;;;15.73;6.00;;;;;;;;;;5097163;28;20035;-68
2022/05/14 11:48:19;;;;;;;19.88;6.30;;;;;;;;;;5087184;27;20436;-68
2022/05/14 11:50:45;;;;;;;16.90;6.00;;;;;;;;;;5098022;28;20052;-68
2022/05/14 11:53:34;;;;;;;17.67;6.03;;;;;;;;;;5085366;27;20044;-67
2022/05/14 11:56:26;;;;;;;27.27;6.85;;;;;;;;;;5087595;27;20078;-68
2022/05/14 11:58:59;;;;;;;19.95;6.90;;;;;;;;;;5092094;28;20048;-68
2022/05/14 12:01:30;;;;;;;19.52;6.45;;;;;;;;;;5089646;28;20111;-68
2022/05/14 12:03:59;;;;;;;13.18;6.15;;;;;;;;;;5083069;27;20044;-68
2022/05/14 12:06:40;;;;;;;23.00;7.13;;;;;;;;;;5080390;28;20048;-67
2022/05/14 12:09:19;;;;;;;17.10;6.85;;;;;;;;;;5090720;28;20097;-67
2022/05/14 12:12:04;;;;;;;17.92;6.68;;;;;;;;;;5087405;28;20114;-67
2022/05/14 12:14:31;;;;;;;16.30;5.18;;;;;;;;;;5094670;28;20093;-67
2022/05/14 12:16:58;;;;;;;20.25;6.72;;;;;;;;;;5090770;27;20050;-68
2022/05/14 12:19:45;;;;;;;13.63;6.22;;;;;;;;;;5072878;27;20040;-67
2022/05/14 12:22:14;;;;;;;18.85;6.72;;;;;;;;;;5096396;27;20214;-68
2022/05/14 12:24:41;;;;;;;21.05;7.20;;;;;;;;;;5097690;28;20396;-68
2022/05/14 12:27:15;;;;;;;26.05;7.43;;;;;;;;;;5092467;27;20121;-69
2022/05/14 12:29:52;;;;;;;18.55;7.00;;;;;;;;;;5084571;28;20066;-69
2022/05/14 12:35:14;;;;;;;22.10;7.45;;;;;;;;;;5093788;28;20050;-70
2022/05/14 12:37:41;;;;;;;19.90;7.60;;;;;;;;;;5091785;28;20123;-70
2022/05/14 12:40:09;;;;;;;16.70;6.65;;;;;;;;;;5084028;27;20047;-69
2022/05/14 12:42:39;;;;;;;19.85;7.60;;;;;;;;;;5086806;27;20044;-69
2022/05/14 12:45:06;;;;;;;18.27;7.18;;;;;;;;;;5085000;28;20438;-69
2022/05/14 12:47:34;;;;;;;22.67;6.55;;;;;;;;;;5084588;28;20036;-69
2022/05/14 12:50:04;;;;;;;18.17;7.32;;;;;;;;;;5094424;28;20498;-69
2022/05/14 12:52:34;;;;;;;22.00;7.47;;;;;;;;;;5082897;28;20597;-68
2022/05/14 12:55:04;;;;;;;20.85;7.45;;;;;;;;;;5085370;27;20509;-68
2022/05/14 12:57:30;;;;;;;18.80;6.65;;;;;;;;;;5085960;28;20032;-69
2022/05/14 12:59:57;;;;;;;16.48;6.25;;;;;;;;;;5094612;28;20082;-68
2022/05/14 13:02:29;;;;;;;16.98;6.30;;;;;;;;;;5084217;28;20519;-68
2022/05/14 13:05:17;;;;;;;11.63;6.03;;;;;;;;;;5083996;28;20106;-68
2022/05/14 13:07:46;;;;;;;21.52;6.97;;;;;;;;;;5104842;28;20075;-68
2022/05/14 13:10:12;;;;;;;24.65;6.88;;;;;;;;;;5083528;28;20051;-69
2022/05/14 13:12:38;;;;;;;17.83;5.78;;;;;;;;;;5082076;28;20618;-68
2022/05/14 13:15:06;;;;;;;19.33;7.63;;;;;;;;;;5083062;28;20135;-68
2022/05/14 13:17:33;;;;;;;22.25;7.22;;;;;;;;;;5086844;28;20599;-68
2022/05/14 13:20:00;;;;;;;15.68;6.13;;;;;;;;;;5088995;28;20123;-70
2022/05/14 13:22:29;;;;;;;19.27;6.78;;;;;;;;;;5085801;28;20139;-68
2022/05/14 13:24:56;;;;;;;14.68;5.88;;;;;;;;;;5067480;28;20074;-68
2022/05/14 13:27:29;;;;;;;12.27;5.72;;;;;;;;;;5086329;28;20047;-68
2022/05/14 13:30:00;;;;;;;18.55;6.63;;;;;;;;;;5087523;28;20036;-68
2022/05/14 13:32:28;;;;;;;19.70;6.53;;;;;;;;;;5084478;28;20044;-69
2022/05/14 13:37:39;;;;;;;15.93;6.15;;;;;;;;;;5087592;28;20051;-68
2022/05/14 13:40:12;;;;;;;19.35;7.53;;;;;;;;;;5087445;28;20389;-68
2022/05/14 13:42:43;;;;;;;14.18;6.05;;;;;;;;;;5084512;28;20051;-68
2022/05/14 13:45:15;;;;;;;13.13;6.85;;;;;;;;;;5092861;28;20092;-69
2022/05/14 13:47:41;;;;;;;;;;;;;;;;;;5084440;28;20495;-68
2022/05/14 13:50:08;;;;;;;14.05;5.93;;;;;;;;;;5080305;28;19920;-68
2022/05/14 13:52:36;;;;;;;20.00;6.03;;;;;;;;;;5080856;28;20131;-69
2022/05/14 13:55:03;;;;;;;18.38;7.10;;;;;;;;;;5090369;28;20036;-69
2022/05/14 13:57:29;;;;;;;24.88;6.90;;;;;;;;;;5083348;28;20455;-69
2022/05/14 14:00:10;;;;;;;15.23;7.03;;;;;;;;;;5095320;28;20299;-68
2022/05/14 14:02:36;;;;;;;19.50;5.35;;;;;;;;;;5093224;28;20063;-69
2022/05/14 14:05:06;;;;;;;15.80;7.03;;;;;;;;;;5083232;28;20047;-68
2022/05/14 14:07:35;;;;;;;11.80;5.13;;;;;;;;;;5084445;28;20147;-69
2022/05/14 14:10:08;;;;;;;20.85;6.75;;;;;;;;;;5086152;28;20043;-69
2022/05/14 14:12:34;;;;;;;16.33;5.97;;;;;;;;;;5094700;28;20924;-69
2022/05/14 14:15:01;;;;;;;15.10;6.10;;;;;;;;;;5090273;28;20051;-69
2022/05/14 14:17:27;;;;;;;16.40;6.18;;;;;;;;;;5087277;28;20098;-69
2022/05/14 14:19:53;;;;;;;16.35;6.05;;;;;;;;;;5085297;28;20528;-69
2022/05/14 14:22:22;;;;;;;14.50;5.75;;;;;;;;;;5084205;28;20044;-69
2022/05/14 14:24:49;;;;;;;13.77;6.00;;;;;;;;;;5096920;28;20055;-69
2022/05/14 14:27:16;;;;;;;21.15;5.82;;;;;;;;;;5070181;28;20051;-69
2022/05/14 14:29:42;;;;;;;21.83;6.47;;;;;;;;;;5088254;28;20040;-69
2022/05/14 14:32:08;;;;;;;17.52;6.80;;;;;;;;;;5084624;27;20508;-69
2022/05/14 14:34:34;;;;;;;8.98;5.13;;;;;;;;;;5085483;27;20588;-70
2022/05/14 14:37:01;;;;;;;15.25;6.68;;;;;;;;;;5066485;28;20044;-69
2022/05/14 14:39:29;;;;;;;10.23;5.10;;;;;;;;;;5105018;27;20497;-72
2022/05/14 14:41:56;;;;;;;13.93;6.28;;;;;;;;;;5062819;28;20044;-72
2022/05/14 14:44:22;;;;;;;21.08;6.38;;;;;;;;;;5085934;28;20260;-72
2022/05/14 14:46:48;;;;;;;12.45;5.63;;;;;;;;;;5090203;27;20550;-72
2022/05/14 14:49:15;;;;;;;20.70;6.32;;;;;;;;;;5069634;28;20515;-72
2022/05/14 14:51:42;;;;;;;13.45;6.45;;;;;;;;;;5090401;28;20105;-72
2022/05/14 14:54:08;;;;;;;14.65;5.85;;;;;;;;;;5086543;27;20044;-73
2022/05/14 14:56:35;;;;;;;16.48;6.13;;;;;;;;;;5087067;28;20135;-72
2022/05/14 14:59:01;;;;;;;13.65;5.95;;;;;;;;;;5087043;27;20463;-72